createdAt,value
2019-01-10T00:01:44.439Z,3.83
2019-01-10T00:04:14.119Z,3.30
2019-01-10T00:06:43.925Z,3.70
2019-01-10T00:09:13.645Z,3.52
2019-01-10T00:11:43.382Z,3.25
2019-01-10T00:14:13.136Z,3.60
2019-01-10T00:16:42.828Z,3.80
2019-01-10T00:19:12.586Z,4.40
2019-01-10T00:21:42.331Z,3.77
2019-01-10T00:24:12.388Z,3.20
2019-01-10T00:26:42.178Z,3.60
2019-01-10T00:29:11.895Z,3.50
2019-01-10T00:31:41.727Z,3.08
2019-01-10T00:34:11.435Z,3.35
2019-01-10T00:36:41.081Z,3.80
2019-01-10T00:39:10.931Z,3.37
2019-01-10T00:41:40.691Z,3.77
2019-01-10T00:44:10.421Z,3.60
2019-01-10T00:46:40.238Z,3.17
2019-01-10T00:49:10.079Z,2.80
2019-01-10T00:51:41.537Z,2.72
2019-01-10T00:54:11.291Z,2.83
2019-01-10T00:56:41.104Z,2.67
2019-01-10T00:59:10.774Z,3.45
2019-01-10T01:01:40.823Z,2.90
2019-01-10T01:04:10.617Z,3.58
2019-01-10T01:06:40.479Z,3.30
2019-01-10T01:09:10.437Z,2.60
2019-01-10T01:11:43.048Z,3.20
2019-01-10T01:14:12.742Z,2.80
2019-01-10T01:16:42.613Z,2.60
2019-01-10T01:19:12.535Z,3.40
2019-01-10T01:21:42.345Z,3.77
2019-01-10T01:24:14.121Z,3.12
2019-01-10T01:26:43.600Z,3.52
2019-01-10T01:29:13.459Z,4.00
2019-01-10T01:31:43.238Z,3.33
2019-01-10T01:34:13.016Z,3.33
2019-01-10T01:36:42.775Z,3.20
2019-01-10T01:39:12.540Z,3.00
2019-01-10T01:41:42.177Z,3.10
2019-01-10T01:44:11.961Z,3.33
2019-01-10T01:46:41.751Z,2.75
2019-01-10T01:49:11.492Z,3.30
2019-01-10T01:51:41.273Z,3.25
2019-01-10T01:54:11.175Z,2.70
2019-01-10T01:56:40.911Z,2.95
2019-01-10T01:59:10.791Z,3.00
2019-01-10T02:01:40.474Z,3.25
2019-01-10T02:04:10.437Z,2.40
2019-01-10T02:06:40.151Z,2.75
2019-01-10T02:09:09.875Z,2.83
2019-01-10T02:11:41.091Z,3.25
2019-01-10T02:14:10.894Z,3.00
2019-01-10T02:16:40.749Z,3.85
2019-01-10T02:19:13.107Z,2.83
2019-01-10T02:21:42.853Z,2.95
2019-01-10T02:24:12.669Z,2.85
2019-01-10T02:26:42.405Z,3.10
2019-01-10T02:29:12.099Z,3.10
2019-01-10T02:31:41.912Z,2.98
2019-01-10T02:34:11.730Z,2.62
2019-01-10T02:36:41.412Z,3.62
2019-01-10T02:39:11.299Z,3.47
2019-01-10T02:41:41.034Z,3.33
2019-01-10T02:44:10.884Z,2.80
2019-01-10T02:46:40.570Z,3.65
2019-01-10T02:49:10.252Z,3.30
2019-01-10T02:51:41.747Z,3.10
2019-01-10T02:54:11.477Z,3.62
2019-01-10T02:56:41.147Z,3.20
2019-01-10T02:59:11.008Z,3.85
2019-01-10T03:01:40.708Z,3.27
2019-01-10T03:04:10.794Z,3.98
2019-01-10T03:06:40.633Z,2.90
2019-01-10T03:09:11.045Z,3.33
2019-01-10T03:11:40.833Z,3.35
2019-01-10T03:14:10.729Z,2.70
2019-01-10T03:16:40.433Z,3.75
2019-01-10T03:19:10.238Z,3.33
2019-01-10T03:21:41.599Z,2.55
2019-01-10T03:24:11.380Z,2.98
2019-01-10T03:26:41.091Z,3.00
2019-01-10T03:29:11.631Z,3.33
2019-01-10T03:31:41.746Z,3.40
2019-01-10T03:34:11.415Z,3.10
2019-01-10T03:36:41.252Z,2.98
2019-01-10T03:39:11.068Z,3.22
2019-01-10T03:41:40.891Z,2.90
2019-01-10T03:44:10.613Z,2.95
2019-01-10T03:46:40.369Z,3.33
2019-01-10T03:49:10.023Z,2.90
2019-01-10T03:51:41.421Z,3.20
2019-01-10T03:54:11.087Z,2.98
2019-01-10T03:56:40.912Z,3.30
2019-01-10T03:59:10.691Z,3.15
2019-01-10T04:01:40.328Z,3.00
2019-01-10T04:04:10.070Z,2.87
2019-01-10T04:06:39.850Z,3.58
2019-01-10T04:09:09.950Z,3.72
2019-01-10T04:11:40.927Z,3.67
2019-01-10T04:14:10.672Z,3.50
2019-01-10T04:16:40.439Z,3.33
2019-01-10T04:19:10.092Z,3.60
2019-01-10T04:21:41.394Z,3.42
2019-01-10T04:24:11.089Z,3.62
2019-01-10T04:26:40.793Z,3.05
2019-01-10T04:29:10.466Z,2.92
2019-01-10T04:31:40.361Z,3.27
2019-01-10T04:34:10.128Z,3.30
2019-01-10T05:44:11.568Z,3.08
2019-01-10T05:46:48.460Z,3.72
2019-01-10T05:49:12.733Z,2.77
2019-01-10T05:51:44.019Z,2.90
2019-01-10T05:54:13.779Z,3.58
2019-01-10T05:56:43.578Z,3.22
2019-01-10T05:59:13.371Z,3.00
2019-01-10T06:01:43.200Z,3.70
2019-01-10T06:04:12.999Z,3.80
2019-01-10T06:06:42.765Z,4.58
2019-01-10T06:09:12.526Z,3.60
2019-01-10T06:11:42.307Z,2.95
2019-01-10T06:14:12.048Z,3.20
2019-01-10T06:16:41.952Z,3.30
2019-01-10T06:19:11.699Z,3.30
2019-01-10T06:21:41.437Z,3.42
2019-01-10T06:24:11.104Z,3.42
2019-01-10T06:26:40.771Z,4.40
2019-01-10T06:29:10.547Z,3.92
2019-01-10T06:31:41.847Z,4.20
2019-01-10T06:34:11.632Z,4.37
2019-01-10T06:36:41.290Z,4.20
2019-01-10T06:39:11.049Z,3.98
2019-01-10T06:41:40.732Z,4.30
2019-01-10T06:44:10.481Z,3.12
2019-01-10T06:46:40.230Z,4.20
2019-01-10T06:49:10.011Z,5.53
2019-01-10T06:51:39.759Z,4.53
2019-01-10T06:54:09.471Z,4.58
2019-01-10T06:56:39.233Z,3.95
2019-01-10T06:59:08.983Z,4.15
2019-01-10T07:01:40.086Z,3.98
2019-01-10T07:04:09.778Z,4.40
2019-01-10T07:06:39.874Z,4.00
2019-01-10T07:09:10.029Z,3.92
2019-01-10T07:11:39.783Z,4.67
2019-01-10T07:14:09.461Z,3.98
2019-01-10T07:16:39.170Z,4.37
2019-01-10T07:19:08.837Z,4.42
2019-01-10T07:21:41.128Z,3.77
2019-01-10T07:24:10.860Z,4.17
2019-01-10T07:27:19.287Z,3.60
2019-01-10T07:29:54.528Z,4.05
2019-01-10T07:32:24.591Z,3.30
2019-01-10T07:38:12.985Z,3.20
2019-01-10T07:40:42.711Z,3.45
2019-01-10T07:43:12.391Z,3.50
2019-01-10T07:45:42.042Z,3.40
2019-01-10T07:48:11.825Z,3.62
2019-01-10T07:50:41.639Z,3.30
2019-01-10T07:53:11.660Z,3.72
2019-01-10T07:55:41.487Z,3.52
2019-01-10T07:58:11.157Z,3.67
2019-01-10T08:00:40.928Z,3.67
2019-01-10T08:03:10.731Z,3.55
2019-01-10T08:05:40.714Z,4.00
2019-01-10T08:08:11.425Z,3.90
2019-01-10T08:10:41.262Z,3.75
2019-01-10T08:13:11.279Z,3.62
2019-01-10T08:15:41.022Z,3.95
2019-01-10T08:18:10.864Z,4.17
2019-01-10T08:20:40.603Z,3.87
2019-01-10T08:23:10.313Z,4.65
2019-01-10T08:25:40.350Z,5.00
2019-01-10T08:28:10.165Z,4.75
2019-01-10T08:30:39.899Z,4.47
2019-01-10T08:33:09.638Z,4.97
2019-01-10T08:35:39.322Z,7.35
2019-01-10T08:38:09.046Z,6.53
2019-01-10T08:40:38.857Z,7.35
2019-01-10T08:43:08.641Z,6.45
2019-01-10T08:45:38.332Z,5.67
2019-01-10T08:48:09.126Z,5.45
2019-01-10T08:50:38.845Z,5.72
2019-01-10T08:53:08.562Z,5.25
2019-01-10T08:55:38.289Z,4.85
2019-01-10T08:58:08.106Z,4.58
2019-01-10T09:00:37.838Z,4.37
2019-01-10T09:03:07.576Z,4.95
2019-01-10T09:05:37.239Z,4.15
2019-01-10T09:08:06.995Z,5.33
2019-01-10T09:10:36.712Z,3.98
2019-01-10T09:13:06.817Z,4.58
2019-01-10T09:15:36.596Z,4.83
2019-01-10T09:18:06.965Z,4.37
2019-01-10T09:20:36.699Z,4.20
2019-01-10T09:23:06.534Z,4.92
2019-01-10T09:25:36.287Z,5.33
2019-01-10T09:28:06.168Z,4.87
2019-01-10T09:30:35.941Z,5.33
2019-01-10T09:33:05.666Z,4.60
2019-01-10T09:35:35.418Z,4.90
2019-01-10T09:38:05.299Z,5.03
2019-01-10T09:40:35.088Z,4.92
2019-01-10T09:43:04.867Z,4.50
2019-01-10T09:45:42.824Z,5.22
2019-01-10T09:48:06.412Z,3.90
2019-01-10T09:50:36.163Z,4.70
2019-01-10T09:53:06.385Z,4.55
2019-01-10T09:55:36.122Z,4.20
2019-01-10T09:58:06.071Z,4.70
2019-01-10T10:00:35.945Z,4.25
2019-01-10T10:03:07.258Z,4.72
2019-01-10T10:05:37.049Z,4.90
2019-01-10T10:08:06.903Z,4.53
2019-01-10T10:10:36.678Z,4.97
2019-01-10T10:13:06.557Z,5.00
2019-01-10T10:15:36.260Z,5.20
2019-01-10T10:18:06.038Z,4.50
2019-01-10T10:20:35.742Z,6.15
2019-01-10T10:23:05.534Z,4.80
2019-01-10T10:25:35.189Z,4.50
2019-01-10T10:28:05.143Z,3.57
2019-01-10T10:30:35.008Z,4.70
2019-01-10T10:33:04.750Z,4.00
2019-01-10T10:35:34.536Z,4.10
2019-01-10T10:38:04.652Z,3.63
2019-01-10T10:40:34.406Z,3.97
2019-01-10T10:43:04.211Z,4.23
2019-01-10T10:45:34.036Z,4.50
2019-01-10T10:48:03.757Z,3.73
2019-01-10T10:50:33.564Z,3.73
2019-01-10T10:53:05.227Z,3.40
2019-01-10T10:55:35.049Z,3.73
2019-01-10T10:58:05.531Z,3.30
2019-01-10T11:00:35.171Z,4.40
2019-01-10T11:03:05.157Z,3.50
2019-01-10T11:05:34.799Z,3.47
2019-01-10T11:08:06.019Z,3.90
2019-01-10T11:10:35.871Z,4.07
2019-01-10T11:13:05.783Z,4.53
2019-01-10T11:15:35.535Z,3.10
2019-01-10T11:18:05.625Z,3.67
2019-01-10T11:20:35.262Z,4.07
2019-01-10T11:23:10.472Z,4.20
2019-01-10T11:25:37.039Z,4.37
2019-01-10T11:28:07.032Z,4.33
2019-01-10T11:30:36.785Z,4.30
2019-01-10T11:33:06.717Z,4.90
2019-01-10T11:35:36.389Z,4.50
2019-01-10T11:38:06.521Z,4.77
2019-01-10T11:40:36.339Z,4.03
2019-01-10T11:43:06.295Z,5.83
2019-01-10T11:45:36.242Z,4.70
2019-01-10T11:48:06.549Z,3.93
2019-01-10T11:50:36.219Z,4.23
2019-01-10T11:53:06.005Z,4.77
2019-01-10T11:55:35.799Z,5.33
2019-01-10T11:58:05.751Z,4.03
2019-01-10T12:00:35.820Z,4.00
2019-01-10T12:03:05.832Z,4.37
2019-01-10T12:05:35.671Z,4.00
2019-01-10T12:08:05.588Z,4.27
2019-01-10T12:10:35.469Z,3.67
2019-01-10T12:13:05.557Z,3.60
2019-01-10T12:15:35.327Z,3.70
2019-01-10T12:18:07.617Z,3.50
2019-01-10T12:20:37.365Z,3.40
2019-01-10T12:23:07.131Z,4.23
2019-01-10T12:25:36.802Z,4.13
2019-01-10T12:28:06.689Z,3.67
2019-01-10T12:30:36.568Z,3.67
2019-01-10T12:33:06.656Z,4.13
2019-01-10T12:35:36.433Z,3.83
2019-01-10T12:38:06.603Z,4.50
2019-01-10T12:40:36.255Z,4.20
2019-01-10T12:43:06.143Z,4.40
2019-01-10T12:45:35.928Z,3.10
2019-01-10T12:48:05.706Z,3.77
2019-01-10T12:50:35.903Z,3.60
2019-01-10T12:53:05.708Z,3.60
2019-01-10T12:55:35.528Z,4.10
2019-01-10T12:58:05.410Z,4.37
2019-01-10T13:00:35.300Z,4.17
2019-01-10T13:03:05.345Z,4.00
2019-01-10T13:05:35.291Z,4.63
2019-01-10T13:08:05.241Z,3.83
2019-01-10T13:10:35.039Z,2.73
2019-01-10T13:13:05.090Z,3.90
2019-01-10T13:15:34.879Z,3.97
2019-01-10T13:18:04.763Z,3.30
2019-01-10T13:20:34.522Z,3.60
2019-01-10T13:23:04.282Z,4.30
2019-01-10T13:25:34.014Z,4.23
2019-01-10T13:28:03.832Z,3.53
2019-01-10T13:30:33.602Z,4.00
2019-01-10T13:33:03.392Z,3.07
2019-01-10T13:35:33.053Z,3.40
2019-01-10T13:38:02.913Z,3.10
2019-01-10T13:40:32.640Z,2.90
2019-01-10T13:43:02.436Z,2.30
2019-01-10T13:45:32.351Z,3.10
2019-01-10T13:48:02.165Z,3.57
2019-01-10T13:50:32.084Z,2.87
2019-01-10T13:53:02.419Z,3.83
2019-01-10T13:55:32.191Z,2.93
2019-01-10T13:58:02.296Z,2.87
2019-01-10T14:00:35.572Z,3.37
2019-01-10T14:03:04.669Z,2.63
2019-01-10T14:05:34.471Z,3.80
2019-01-10T14:08:04.629Z,3.87
2019-01-10T14:10:34.410Z,3.47
2019-01-10T14:13:04.193Z,2.87
2019-01-10T14:15:34.416Z,3.53
2019-01-10T14:18:04.464Z,3.73
2019-01-10T14:20:34.380Z,3.33
2019-01-10T14:23:04.595Z,2.83
2019-01-10T14:25:34.371Z,2.90
2019-01-10T14:28:04.285Z,2.43
2019-01-10T14:30:36.531Z,2.60
2019-01-10T14:33:08.310Z,3.13
2019-01-10T14:35:38.121Z,3.50
2019-01-10T14:38:08.088Z,3.90
2019-01-10T14:40:38.147Z,2.90
2019-01-10T14:43:07.962Z,3.10
2019-01-10T14:45:37.957Z,2.80
2019-01-10T14:48:07.911Z,3.23
2019-01-10T14:50:37.755Z,3.00
2019-01-10T14:53:07.743Z,3.80
2019-01-10T14:55:37.586Z,4.47
2019-01-10T14:58:07.850Z,4.10
2019-01-10T15:00:37.898Z,3.57
2019-01-10T15:03:07.545Z,3.70
2019-01-10T15:05:37.695Z,4.37
2019-01-10T15:08:07.617Z,5.17
2019-01-10T15:10:37.360Z,3.53
2019-01-10T15:13:07.253Z,4.10
2019-01-10T15:15:37.215Z,3.17
2019-01-10T15:18:06.951Z,3.50
2019-01-10T15:20:36.856Z,4.07
2019-01-10T15:23:06.662Z,3.60
2019-01-10T15:25:36.361Z,3.93
2019-01-10T15:28:06.155Z,4.30
2019-01-10T15:30:36.347Z,4.70
2019-01-10T15:33:06.131Z,4.27
2019-01-10T15:35:35.931Z,4.80
2019-01-10T15:38:05.822Z,4.20
2019-01-10T15:40:35.950Z,4.53
2019-01-10T15:43:06.128Z,4.30
2019-01-10T15:45:35.931Z,4.30
2019-01-10T15:48:06.607Z,4.30
2019-01-10T15:50:36.252Z,5.00
2019-01-10T15:53:06.326Z,5.10
2019-01-10T15:55:36.169Z,4.80
2019-01-10T15:58:05.978Z,5.07
2019-01-10T16:00:35.641Z,5.97
2019-01-10T16:03:05.582Z,6.67
2019-01-10T16:05:35.410Z,6.20
2019-01-10T16:08:05.451Z,6.23
2019-01-10T16:10:35.155Z,6.43
2019-01-10T16:15:40.658Z,8.07
2019-01-10T16:18:10.438Z,8.20
2019-01-10T16:20:40.234Z,7.10
2019-01-10T16:23:10.379Z,6.10
2019-01-10T16:25:40.025Z,6.73
2019-01-10T16:28:10.109Z,7.67
2019-01-10T16:30:39.852Z,7.60
2019-01-10T16:33:09.515Z,7.73
2019-01-10T16:35:39.518Z,7.50
2019-01-10T16:38:09.293Z,6.50
2019-01-10T16:40:38.955Z,6.23
2019-01-10T16:43:11.901Z,8.30
2019-01-10T16:45:40.254Z,7.87
2019-01-10T16:48:10.065Z,5.77
2019-01-10T16:50:39.871Z,5.43
2019-01-10T16:53:09.556Z,7.10
2019-01-10T16:55:39.391Z,5.93
2019-01-10T16:58:09.107Z,6.30
2019-01-10T17:00:38.801Z,7.60
2019-01-10T17:03:08.530Z,6.63
2019-01-10T17:05:38.409Z,6.73
2019-01-10T17:08:08.249Z,6.00
2019-01-10T17:10:38.055Z,5.00
2019-01-10T17:13:07.874Z,5.57
2019-01-10T17:15:37.662Z,5.60
2019-01-10T17:18:07.464Z,5.27
2019-01-10T17:20:37.164Z,4.80
2019-01-10T17:23:06.982Z,4.80
2019-01-10T17:25:37.617Z,5.87
2019-01-10T17:28:07.535Z,5.53
2019-01-10T17:30:37.541Z,5.50
2019-01-10T17:33:07.362Z,6.30
2019-01-10T17:35:37.162Z,5.70
2019-01-10T17:38:07.311Z,5.57
2019-01-10T17:40:37.129Z,5.63
2019-01-10T17:43:06.979Z,6.33
2019-01-10T17:45:37.005Z,6.63
2019-01-10T17:48:07.828Z,6.50
2019-01-10T17:50:37.543Z,5.30
2019-01-10T17:53:07.312Z,5.43
2019-01-10T17:55:37.277Z,5.77
2019-01-10T17:58:07.170Z,5.93
2019-01-10T18:00:36.836Z,5.13
2019-01-10T18:03:06.615Z,5.63
2019-01-10T18:05:36.454Z,5.10
2019-01-10T18:08:06.330Z,6.07
2019-01-10T18:10:36.191Z,5.63
2019-01-10T18:13:06.874Z,6.90
2019-01-10T18:17:21.722Z,6.23
2019-01-10T18:19:51.397Z,6.60
2019-01-10T18:22:21.210Z,6.03
2019-01-10T18:24:50.940Z,6.90
2019-01-10T18:27:20.708Z,6.27
2019-01-10T18:29:50.998Z,5.60
2019-01-10T18:32:20.674Z,5.67
2019-01-10T18:34:51.032Z,5.97
2019-01-10T18:37:20.731Z,7.07
2019-01-10T18:39:50.465Z,8.23
2019-01-10T18:42:20.331Z,8.97
2019-01-10T18:44:50.050Z,9.73
2019-01-10T18:49:40.114Z,9.80
2019-01-10T18:52:09.931Z,9.00
2019-01-10T18:54:39.615Z,8.37
2019-01-10T18:57:09.359Z,8.00
2019-01-10T18:59:39.034Z,7.90
2019-01-10T19:02:09.018Z,7.37
2019-01-10T19:04:38.702Z,7.07
2019-01-10T19:07:08.477Z,6.80
2019-01-10T19:09:38.174Z,7.37
2019-01-10T19:12:07.922Z,7.67
2019-01-10T19:14:38.064Z,6.90
2019-01-10T19:17:07.825Z,5.70
2019-01-10T19:19:37.483Z,6.20
2019-01-10T19:22:07.370Z,6.30
2019-01-10T19:24:37.019Z,5.83
2019-01-10T19:27:06.804Z,5.83
2019-01-10T19:29:36.570Z,6.47
2019-01-10T19:32:06.447Z,5.73
2019-01-10T19:34:36.137Z,5.93
2019-01-10T19:37:05.935Z,6.13
2019-01-10T19:39:35.686Z,6.33
2019-01-10T19:42:05.396Z,7.80
2019-01-10T19:44:35.090Z,7.13
2019-01-10T19:47:05.047Z,6.93
2019-01-10T19:49:34.859Z,7.50
2019-01-10T19:52:04.664Z,7.47
2019-01-10T19:54:34.408Z,10.50
2019-01-10T19:57:04.173Z,8.80
2019-01-10T19:59:34.059Z,9.60
2019-01-10T20:02:04.064Z,9.43
2019-01-10T20:04:33.728Z,8.93
2019-01-10T20:07:03.555Z,10.13
2019-01-10T20:09:33.206Z,9.43
2019-01-10T20:12:03.049Z,9.57
2019-01-10T20:14:32.702Z,9.60
2019-01-10T20:17:02.711Z,10.17
2019-01-10T20:19:32.482Z,8.17
2019-01-10T20:22:02.148Z,9.20
2019-01-10T20:24:32.691Z,8.87
2019-01-10T20:27:02.421Z,8.77
2019-01-10T20:29:32.111Z,9.27
2019-01-10T20:32:01.873Z,8.70
2019-01-10T20:34:31.571Z,7.53
2019-01-10T20:37:02.170Z,7.83
2019-01-10T20:39:32.041Z,7.03
2019-01-10T20:42:02.085Z,9.70
2019-01-10T20:44:31.798Z,8.10
2019-01-10T20:47:01.563Z,8.33
2019-01-10T20:49:31.282Z,6.07
2019-01-10T20:52:02.256Z,5.90
2019-01-10T20:54:31.924Z,6.13
2019-01-10T20:57:01.633Z,5.10
2019-01-10T20:59:31.390Z,4.70
2019-01-10T21:02:01.105Z,3.20
2019-01-10T21:04:30.865Z,3.97
2019-01-10T21:07:00.687Z,3.80
2019-01-10T21:09:30.519Z,3.50
2019-01-10T21:12:00.327Z,3.30
2019-01-10T21:14:30.034Z,3.63
2019-01-10T21:16:59.942Z,3.93
2019-01-10T21:19:29.651Z,3.83
2019-01-10T21:21:59.393Z,4.17
2019-01-10T21:24:29.119Z,5.90
2019-01-10T21:26:58.823Z,6.60
2019-01-10T21:29:28.543Z,5.83
2019-01-10T21:31:58.234Z,5.33
2019-01-10T21:34:27.875Z,4.40
2019-01-10T21:36:57.596Z,4.83
2019-01-10T21:39:27.627Z,4.33
2019-01-10T21:41:57.336Z,4.40
2019-01-10T21:44:27.104Z,4.87
2019-01-10T21:46:56.833Z,4.57
2019-01-10T21:49:26.493Z,4.60
2019-01-10T21:51:56.169Z,5.00
2019-01-10T21:54:27.609Z,4.57
2019-01-10T21:56:57.257Z,5.40
2019-01-10T21:59:27.491Z,4.23
2019-01-10T22:01:57.144Z,4.27
2019-01-10T22:04:26.927Z,4.57
2019-01-10T22:06:56.591Z,5.40
2019-01-10T22:09:26.334Z,6.40
2019-01-10T22:11:56.052Z,5.93
2019-01-10T22:14:25.810Z,6.17
2019-01-10T22:16:55.489Z,4.60
2019-01-10T22:19:25.118Z,5.20
2019-01-10T22:21:54.836Z,4.20
2019-01-10T22:24:24.471Z,3.77
2019-01-10T22:26:54.267Z,4.10
2019-01-10T22:29:23.970Z,3.87
2019-01-10T22:31:53.713Z,3.90
2019-01-10T22:34:23.449Z,3.90
2019-01-10T22:36:53.297Z,3.60
2019-01-10T22:39:22.976Z,4.00
2019-01-10T22:44:32.798Z,3.97
2019-01-10T22:47:02.466Z,4.40
2019-01-10T22:49:32.165Z,4.50
2019-01-10T22:52:01.843Z,4.30
2019-01-10T22:54:31.549Z,4.33
2019-01-10T22:57:01.182Z,4.77
2019-01-10T22:59:30.851Z,4.50
2019-01-10T23:02:00.833Z,5.30
2019-01-10T23:04:32.243Z,5.80
2019-01-10T23:07:02.131Z,5.33
2019-01-10T23:09:32.306Z,5.00
2019-01-10T23:12:02.738Z,4.47
2019-01-10T23:14:32.398Z,5.00
2019-01-10T23:17:02.198Z,3.93
2019-01-10T23:19:31.984Z,4.33
2019-01-10T23:22:13.843Z,4.87
2019-01-10T23:24:43.820Z,4.67
2019-01-10T23:27:13.489Z,4.37
2019-01-10T23:29:43.307Z,3.83
2019-01-10T23:32:13.395Z,4.33
2019-01-10T23:34:46.602Z,3.67
2019-01-10T23:37:20.489Z,4.43
2019-01-10T23:39:50.238Z,4.40
2019-01-10T23:42:19.884Z,3.60
2019-01-10T23:44:49.649Z,4.40
2019-01-10T23:47:19.496Z,4.30
2019-01-10T23:49:49.237Z,4.10
2019-01-10T23:52:18.927Z,4.23
2019-01-10T23:54:48.736Z,3.97
2019-01-10T23:57:18.608Z,4.13
2019-01-10T23:59:48.244Z,3.87
